Terminal Aerodrome Forecast
Issued by NWS

Home | Current Version | Previous Version | Text Only | Print | Product List | Glossary On
Versions: 1 2 3 4 5 6 7 8 9 10 11 12 13 14 15 16
000
FTUS43 KIND 071720
TAFBMG
TAF
KBMG 071720Z 0718/0818 25005KT P6SM BKN100
     FM080500 30006KT P6SM VCSH BKN110
     FM081000 29007KT P6SM BKN090
     FM081100 29008G18KT P6SM SCT200=

USA.gov is the U.S. government's official web portal to all federal, state and local government web resources and services.